Aérodrome :
LOGIN :

S'inscrire | Disclaimer

   EN    FR    IT 

 










Légende :    VFR   VFR Marginal   IFR   IFR Intensif   IFR Très Intensif
Visi : 
Plafond : 
>= 8 km
>= 3000ft
5 à 8 km
1000 à 3000 ft
1500m à 5 km
500 à 1000 ft
800 à 1500m
200 à 500 ft
< 800m
< 200 ft
Symboles :   Orages  Brouillard  Fortes neiges  Fortes précipitations  Vent > 20 kt
SIGMETs :   Divers  Orages  Givrage  Turbulence  Onde Orograph.  Cendres Volcan.







- Altitude de l'aérodrome : 461 ft
- Code IATA : WIE


ETOU - Wiesbaden Army

DERNIER METAR :
  • 202356Z AUTO 06011KT 9999 CLR 03/M02 A2985 RMK AO2 SLP116 T00291022 10035 20025 50003 $

METARs EXPIRÉS :
  • 202256Z AUTO 06008KT 9999 CLR 03/M02 A2986 RMK AO2 SLP119 T00291024 400460024 $
  • 202236Z AUTO 06010KT 9999 SCT020 03/M03 A2985 RMK AO2 SLP116 $
  • 202206Z AUTO 06006KT 9999 BKN020 BKN110 03/M02 A2985 RMK AO2 CIG 020V110 BKN020 V SCT SLP116 $
  • 202156Z AUTO 07005KT 9999 SCT020 SCT110 03/M02 A2985 RMK AO2 SLP116 T00281023 $

TAF TAF ETOU
Valide du 20 à 20h jusqu'au 22 à 02h UTC


202009Z 2020/2202 07009KT 9999 SCT020 BKN110 BKN200 QNH2978INS
BECMG 2023/2024 07006KT 8000 BR SCT020 BKN110 QNH2980INS
BECMG 2106/2107 07009KT 9999 NSW SCT010 BKN020 620209 QNH2982INS
TEMPO 2107/2112 BKN010
BECMG 2120/2121 VRB06KT 9999 BKN006 OVC015 620109 QNH3000INS TX04/2114Z TN00/2105Z
Pas de NOTAMs connus pour ce terrain.



MET'MAP, la Météo Aéronautique d'un coup d'oeil ! - Copyright ORBIFLY Décembre 2007 - Disclaimer

ORBIFLY MET'MAP TEAM :

Programmation & Développement : Alexandra Zaïnal
Conception & Développement : Baudouin d'Aumeries
Co-Programmation & Développement : Marc-Olivier Méhu
Soutien technique & logistique : Manuel Goepfert

Contact : metmap@orbifly.com




SOURCES & CREDITS :

   NOAA